Main page
METAR-TAF:

METAR-TAF

Airports :

Castellón–Costa Azahar Airport

Castellón de la Plana, Spain

latitude: 40-12-35N, longitude: 0-04-11E, elevation: 360 m

Current weather observation

The report was made 38 minutes ago, at 01:30 UTC
Calm wind
Temperature 21°C
Humidity 78%
Pressure 1015 hPa
Visibility 10 km or more
no clouds below 1500 m and no cumulonimbus

METAR: LECH 150130Z AUTO 00000KT CAVOK 21/17 Q1015

Time: 04:08 (02:08 UTC)


TAF: missing

Weather observations and forecasts of more than 4000 airports (METAR and TAF reports).

The available stations are represented by yellow and red dots on the map.

Hover mouse over dot to see the name of the station.

Then click to see weather observations and forecasts.

To change the map : click on the green buttons with a black cross to zoom in, on the green button with a dash to zoom out, or on the green arrows for adjacent maps.


METAR-TAF: